Time;durP1;ratioP1;P1;durP2;ratioP2;P2;SDS_P1;SDS_P2;PMS_P1;PMS_P2;Temp;Humidity;BMP_temperature;BMP_pressure;BME280_temperature;BME280_humidity;BME280_pressure;Samples;Min_cycle;Max_cycle;Signal;HPM_P1;HPM_P2
2022/06/21 00:02:13;;;;;;;2.90;2.80;;;;;;;17.25;77.76;63776.44;4945933;29;20383;-78
2022/06/21 00:04:40;;;;;;;2.55;2.35;;;;;;;17.20;77.69;63781.50;4970751;28;20212;-78
2022/06/21 00:07:13;;;;;;;2.88;2.63;;;;;;;17.19;78.42;63779.94;5051295;28;20222;-77
2022/06/21 00:09:40;;;;;;;2.38;2.25;;;;;;;17.19;78.87;63777.91;4948626;29;20225;-79
2022/06/21 00:12:10;;;;;;;2.75;2.55;;;;;;;17.18;78.38;63773.75;4961971;29;20207;-78
2022/06/21 00:14:39;;;;;;;2.50;2.40;;;;;;;17.07;80.13;63762.31;4967196;28;20228;-78
2022/06/21 00:17:06;;;;;;;3.80;2.42;;;;;;;17.00;80.11;63752.97;4958596;28;20209;-78
2022/06/21 00:19:33;;;;;;;2.90;2.70;;;;;;;16.98;81.53;63756.03;4959079;28;20220;-79
2022/06/21 00:22:00;;;;;;;2.97;2.88;;;;;;;17.04;81.47;63764.84;4965727;28;20236;-78
2022/06/21 00:24:26;;;;;;;3.40;3.20;;;;;;;17.03;81.43;63763.81;5012749;28;20231;-77
2022/06/21 00:26:54;;;;;;;2.83;2.72;;;;;;;17.00;82.06;63758.13;5036572;28;20216;-78
2022/06/21 00:29:21;;;;;;;2.78;2.67;;;;;;;17.06;81.74;63766.41;4965401;28;20266;-77
2022/06/21 00:31:50;;;;;;;2.58;2.47;;;;;;;16.99;82.47;63759.13;4965674;28;20516;-77
2022/06/21 00:34:20;;;;;;;3.30;3.00;;;;;;;17.08;82.69;63768.50;5004384;28;20196;-78
2022/06/21 00:36:48;;;;;;;2.70;2.58;;;;;;;17.09;82.67;63761.81;4968176;29;20200;-77
2022/06/21 00:39:17;;;;;;;2.50;2.35;;;;;;;17.14;81.73;63767.53;4965489;28;20208;-78
2022/06/21 00:41:48;;;;;;;2.92;2.83;;;;;;;17.13;81.48;63776.28;4970599;28;20232;-77
2022/06/21 00:44:19;;;;;;;3.25;3.05;;;;;;;17.10;82.41;63770.59;4968307;28;20214;-77
2022/06/21 00:46:50;;;;;;;3.03;2.90;;;;;;;17.06;82.30;63766.94;4967762;28;20188;-77
2022/06/21 00:49:21;;;;;;;3.05;2.80;;;;;;;17.03;81.56;63763.31;4967456;28;20417;-77
2022/06/21 00:51:51;;;;;;;2.97;2.78;;;;;;;16.98;81.20;63755.53;5042210;28;20427;-76
2022/06/21 00:54:22;;;;;;;2.72;2.55;;;;;;;16.99;80.65;63751.41;5066036;28;20374;-77
2022/06/21 00:56:56;;;;;;;3.30;2.70;;;;;;;16.96;80.65;63751.38;5064902;28;20195;-77
2022/06/21 00:59:25;;;;;;;2.72;2.63;;;;;;;16.97;81.89;63749.31;5065382;28;20300;-77
2022/06/21 01:01:58;;;;;;;2.78;2.58;;;;;;;17.00;81.83;63755.53;5062363;28;20228;-78
2022/06/21 01:04:32;;;;;;;5.88;3.33;;;;;;;17.01;81.46;63756.06;5065375;28;20242;-77
2022/06/21 01:07:01;;;;;;;2.60;2.40;;;;;;;17.04;81.40;63764.34;5065690;28;20196;-77
2022/06/21 01:09:34;;;;;;;3.13;2.90;;;;;;;17.09;81.22;63767.50;5049314;28;20420;-77
2022/06/21 01:12:06;;;;;;;2.75;2.65;;;;;;;17.10;81.55;63768.53;4960220;29;20242;-78
2022/06/21 01:14:37;;;;;;;2.70;2.60;;;;;;;17.08;81.98;63763.88;4965923;28;20220;-78
2022/06/21 01:17:09;;;;;;;3.00;2.80;;;;;;;17.09;81.17;63764.38;4965779;28;20264;-78
2022/06/21 01:19:40;;;;;;;3.20;2.90;;;;;;;17.08;81.28;63769.00;4965348;29;20306;-77
2022/06/21 01:22:17;;;;;;;4.32;2.75;;;;;;;16.99;81.40;63759.66;4971135;29;20285;-77
2022/06/21 01:24:56;;;;;;;2.92;2.75;;;;;;;16.85;81.72;63737.38;4974020;29;20220;-77
2022/06/21 01:27:24;;;;;;;2.50;2.40;;;;;;;16.87;82.09;63744.59;4969404;28;20556;-77
2022/06/21 01:29:53;;;;;;;3.05;2.85;;;;;;;16.89;81.54;63746.16;4965917;28;20220;-77
2022/06/21 01:32:20;;;;;;;3.28;2.88;;;;;;;16.91;81.12;63751.31;4965290;28;20208;-76
2022/06/21 01:34:48;;;;;;;4.47;2.85;;;;;;;16.89;81.31;63749.25;4963804;28;20570;-76
2022/06/21 01:37:21;;;;;;;3.00;2.80;;;;;;;16.93;81.15;63752.88;4964207;28;20204;-76
2022/06/21 01:39:52;;;;;;;3.10;2.83;;;;;;;16.92;81.55;63747.22;4963633;28;20216;-77
2022/06/21 01:42:22;;;;;;;2.70;2.50;;;;;;;16.89;81.66;63748.72;4964213;28;20254;-77
2022/06/21 01:44:56;;;;;;;2.88;2.67;;;;;;;16.93;83.62;63750.31;4963748;28;20279;-77
2022/06/21 01:47:26;;;;;;;2.58;2.45;;;;;;;16.76;84.02;63730.03;4963560;29;20188;-77
2022/06/21 01:50:04;;;;;;;3.10;2.90;;;;;;;16.75;84.06;63731.59;4963735;28;20224;-77
2022/06/21 01:52:35;;;;;;;3.22;2.92;;;;;;;16.76;84.20;63735.19;4963529;28;20267;-78
2022/06/21 01:55:07;;;;;;;4.68;3.00;;;;;;;16.71;85.41;63724.84;4963844;28;20220;-77
2022/06/21 01:57:34;;;;;;;3.28;2.97;;;;;;;16.71;85.53;63733.09;4964036;28;20195;-77
2022/06/21 02:00:05;;;;;;;2.92;2.83;;;;;;;16.72;85.34;63733.59;4963991;28;20224;-78
2022/06/21 02:02:37;;;;;;;2.70;2.60;;;;;;;16.79;84.26;63740.91;4962990;28;20238;-78
2022/06/21 02:05:09;;;;;;;3.25;3.00;;;;;;;16.78;83.90;63740.38;4963441;29;20274;-77
2022/06/21 02:07:41;;;;;;;2.45;2.35;;;;;;;16.77;84.52;63733.66;4964481;28;20219;-78
2022/06/21 02:10:17;;;;;;;2.80;2.63;;;;;;;16.75;84.73;63734.69;4962832;29;20223;-78
2022/06/21 02:12:48;;;;;;;2.67;2.47;;;;;;;16.72;85.19;63728.47;4963442;29;20204;-78
2022/06/21 02:15:28;;;;;;;3.05;2.75;;;;;;;16.72;85.16;63731.03;4963421;29;20220;-77
2022/06/21 02:17:56;;;;;;;2.60;2.50;;;;;;;16.64;85.56;63725.28;4964271;28;20200;-77
2022/06/21 02:20:27;;;;;;;2.92;2.72;;;;;;;16.54;86.60;63707.69;4963269;28;20291;-77
2022/06/21 02:22:55;;;;;;;3.47;3.28;;;;;;;16.47;87.95;63705.53;4963720;28;20252;-77
2022/06/21 02:25:25;;;;;;;3.45;2.90;;;;;;;16.38;88.51;63691.00;4963346;29;20208;-77
2022/06/21 02:27:55;;;;;;;3.47;3.17;;;;;;;16.40;88.72;63695.66;4963713;28;20228;-77
2022/06/21 02:30:27;;;;;;;3.05;2.95;;;;;;;16.39;88.80;63689.50;4963822;29;20220;-77
2022/06/21 02:32:59;;;;;;;2.67;2.58;;;;;;;16.37;88.46;63692.03;4964601;28;20509;-78
2022/06/21 02:35:33;;;;;;;2.75;2.53;;;;;;;16.31;89.00;63685.78;4964678;28;20242;-77
2022/06/21 02:38:03;;;;;;;2.95;2.58;;;;;;;16.29;87.92;63691.91;4966388;29;20267;-76
2022/06/21 02:40:33;;;;;;;3.33;3.20;;;;;;;16.25;88.40;63682.63;4967918;28;20240;-77
2022/06/21 02:43:04;;;;;;;2.72;2.53;;;;;;;16.22;89.10;63673.84;4967159;29;20579;-78
2022/06/21 02:45:47;;;;;;;2.78;2.58;;;;;;;16.19;89.16;63673.81;4964851;28;20230;-77
2022/06/21 02:48:19;;;;;;;2.70;2.60;;;;;;;16.15;89.16;63672.75;4965937;28;20433;-77
2022/06/21 02:50:50;;;;;;;2.83;2.72;;;;;;;16.14;89.79;63671.19;4965110;29;20563;-76
2022/06/21 02:53:23;;;;;;;3.17;3.00;;;;;;;16.14;89.64;63669.13;4965538;28;20242;-77
2022/06/21 02:55:55;;;;;;;3.10;2.90;;;;;;;16.17;88.17;63671.72;4965935;28;20216;-79
2022/06/21 02:58:29;;;;;;;3.22;3.08;;;;;;;16.19;88.06;63671.78;4965043;28;20201;-76
2022/06/21 03:01:03;;;;;;;3.22;2.55;;;;;;;16.23;88.63;63682.59;4964825;29;20228;-77
2022/06/21 03:03:33;;;;;;;3.70;3.45;;;;;;;16.21;88.07;63675.91;4966086;28;20230;-78
2022/06/21 03:06:04;;;;;;;3.03;2.92;;;;;;;16.30;87.06;63684.75;4964016;28;20223;-78
2022/06/21 03:08:33;;;;;;;6.28;3.00;;;;;;;16.30;86.98;63679.59;4964624;28;20204;-78
2022/06/21 03:11:01;;;;;;;2.90;2.75;;;;;;;16.37;86.95;63694.59;4960979;29;20228;-79
2022/06/21 03:13:33;;;;;;;7.05;3.65;;;;;;;16.46;87.17;63701.38;4967535;28;20434;-78
2022/06/21 03:16:05;;;;;;;61.92;36.65;;;;;;;16.48;88.37;63700.94;4966830;29;20227;-77
2022/06/21 03:18:37;;;;;;;8.27;4.55;;;;;;;16.50;87.60;63705.56;4965119;28;20211;-80
2022/06/21 03:21:05;;;;;;;3.42;3.20;;;;;;;16.62;86.74;63718.56;4965326;28;20232;-78
2022/06/21 03:23:34;;;;;;;3.67;3.42;;;;;;;16.71;85.78;63727.94;4967833;28;20232;-78
2022/06/21 03:26:04;;;;;;;4.75;2.75;;;;;;;16.75;86.22;63734.16;4970275;28;20218;-77
2022/06/21 03:28:36;;;;;;;2.92;2.83;;;;;;;16.83;85.71;63740.44;4968784;28;20513;-77
2022/06/21 03:31:11;;;;;;;3.17;2.97;;;;;;;16.91;85.83;63748.25;4964860;29;20586;-77
2022/06/21 03:33:41;;;;;;;2.78;2.67;;;;;;;16.94;85.73;63749.31;4946611;28;20251;-77
2022/06/21 03:36:12;;;;;;;4.93;2.92;;;;;;;16.99;85.29;63757.09;4946809;29;20240;-77
2022/06/21 03:38:43;;;;;;;8.00;7.10;;;;;;;17.12;84.51;63772.66;4946986;28;20456;-78
2022/06/21 03:44:00;;;;;;;3.40;3.10;;;;;;;17.38;83.83;63792.00;4947174;29;20551;-77
2022/06/21 03:46:38;;;;;;;2.67;2.58;;;;;;;17.44;85.15;63803.41;4956444;29;20220;-77
2022/06/21 03:49:14;;;;;;;2.90;2.70;;;;;;;17.58;85.93;63820.06;4966086;28;20196;-78
2022/06/21 03:51:46;;;;;;;4.45;2.85;;;;;;;17.62;87.30;63819.06;4966490;29;20242;-77
2022/06/21 03:54:29;;;;;;;3.25;2.95;;;;;;;17.46;87.77;63805.50;4967242;28;20207;-79
2022/06/21 03:57:01;;;;;;;2.72;2.63;;;;;;;17.49;88.53;63803.47;4966369;28;20264;-78
2022/06/21 03:59:36;;;;;;;3.03;2.80;;;;;;;17.69;87.42;63829.44;4965878;29;20406;-78
2022/06/21 04:02:10;;;;;;;3.03;2.83;;;;;;;17.62;85.29;63821.66;4968337;28;20195;-78
2022/06/21 04:04:43;;;;;;;3.70;3.50;;;;;;;17.64;85.12;63824.25;4965876;29;20438;-78
2022/06/21 04:07:27;;;;;;;3.80;3.50;;;;;;;17.56;84.54;63812.81;4968758;29;20202;-81
2022/06/21 04:10:10;;;;;;;4.88;4.50;;;;;;;17.43;85.62;63799.78;4969541;29;20237;-77
2022/06/21 04:12:50;;;;;;;3.78;3.58;;;;;;;17.33;84.82;63797.63;4953472;29;20252;-79
2022/06/21 04:15:21;;;;;;;3.90;3.60;;;;;;;17.39;84.66;63795.09;4950723;28;20220;-77
2022/06/21 04:18:09;;;;;;;4.18;3.83;;;;;;;17.78;85.65;63840.88;4955027;29;20196;-80
2022/06/21 04:20:43;;;;;;;3.85;3.38;;;;;;;17.95;85.27;63859.09;4963456;28;20517;-77
2022/06/21 04:23:28;;;;;;;3.95;3.63;;;;;;;18.12;86.16;63876.81;4967627;28;20224;-77
2022/06/21 04:26:02;;;;;;;3.65;3.45;;;;;;;18.33;86.09;63898.69;4968212;29;20470;-77
2022/06/21 04:28:34;;;;;;;6.60;3.67;;;;;;;18.37;84.43;63897.72;4994938;28;20287;-77
2022/06/21 04:31:05;;;;;;;4.07;3.35;;;;;;;18.36;83.63;63901.31;5064256;28;20235;-77
2022/06/21 04:33:38;;;;;;;4.07;3.80;;;;;;;18.39;84.01;63902.38;4966738;29;20208;-78
2022/06/21 04:36:14;;;;;;;3.90;3.60;;;;;;;18.55;83.42;63918.53;4969088;28;20258;-78
2022/06/21 04:38:50;;;;;;;4.53;4.22;;;;;;;18.73;83.29;63934.19;4970242;28;20223;-78
2022/06/21 04:41:24;;;;;;;4.70;4.10;;;;;;;18.87;84.37;63948.78;4965882;28;20318;-77
2022/06/21 04:43:57;;;;;;;6.32;4.63;;;;;;;18.85;86.07;63952.41;4965130;29;20250;-78
2022/06/21 04:46:29;;;;;;;4.95;4.38;;;;;;;18.97;85.58;63964.38;4966889;28;20221;-77
2022/06/21 04:49:03;;;;;;;5.20;4.80;;;;;;;18.89;83.42;63953.47;5055004;28;20276;-77
2022/06/21 04:51:37;;;;;;;4.43;4.13;;;;;;;18.70;85.10;63931.09;5070823;28;20265;-77
2022/06/21 04:54:14;;;;;;;5.35;4.60;;;;;;;18.67;83.80;63933.66;5072540;28;20211;-78
2022/06/21 04:56:50;;;;;;;4.85;4.45;;;;;;;18.62;83.12;63928.41;5067433;28;20205;-77
2022/06/21 04:59:22;;;;;;;4.97;4.57;;;;;;;18.55;81.93;63921.13;5064927;28;20258;-77
2022/06/21 05:01:49;;;;;;;5.65;5.20;;;;;;;18.69;79.80;63935.72;5069045;28;20193;-76
2022/06/21 05:04:22;;;;;;;6.60;5.03;;;;;;;18.54;80.87;63919.56;5068838;28;20255;-77
2022/06/21 05:06:51;;;;;;;5.28;4.63;;;;;;;18.66;80.33;63929.47;5035514;28;20215;-78
2022/06/21 05:09:20;;;;;;;8.65;5.78;;;;;;;18.64;81.42;63922.25;4965131;29;20208;-78
2022/06/21 05:11:56;;;;;;;7.55;4.93;;;;;;;18.66;83.61;63932.06;4965062;29;20192;-77
2022/06/21 05:14:27;;;;;;;7.45;6.55;;;;;;;18.56;84.00;63922.16;4965708;29;20294;-78
2022/06/21 05:16:54;;;;;;;9.45;6.03;;;;;;;18.63;84.42;63921.72;4965376;29;20195;-77
2022/06/21 05:19:27;;;;;;;9.85;6.32;;;;;;;18.69;85.98;63935.72;4964291;29;20252;-78
2022/06/21 05:21:59;;;;;;;12.98;6.50;;;;;;;18.79;85.98;63946.16;4963799;29;20216;-77
2022/06/21 05:24:26;;;;;;;6.32;5.63;;;;;;;18.62;82.99;63925.34;4963908;28;20240;-77
2022/06/21 05:27:04;;;;;;;7.30;6.15;;;;;;;18.62;85.50;63925.34;4963882;29;20230;-77
2022/06/21 05:29:39;;;;;;;9.02;6.78;;;;;;;18.73;84.13;63941.94;4964537;29;20212;-78
2022/06/21 05:32:15;;;;;;;11.32;6.70;;;;;;;18.82;87.00;63944.13;4964959;28;20214;-77
2022/06/21 05:34:55;;;;;;;8.43;6.28;;;;;;;19.04;83.11;63967.03;4965368;28;20391;-77
2022/06/21 05:37:30;;;;;;;12.20;7.50;;;;;;;19.29;81.26;63995.69;4965025;28;20199;-78
2022/06/21 05:40:00;;;;;;;11.65;6.93;;;;;;;19.49;81.88;64016.56;4964425;29;20227;-77
2022/06/21 05:42:29;;;;;;;8.75;7.30;;;;;;;19.59;81.27;64026.47;4964927;29;20445;-78
2022/06/21 05:45:05;;;;;;;11.20;8.32;;;;;;;19.72;80.46;64047.78;4967970;28;20240;-77
2022/06/21 05:47:35;;;;;;;13.00;8.20;;;;;;;19.80;79.23;64050.44;4964538;28;20535;-76
2022/06/21 05:50:07;;;;;;;12.00;7.80;;;;;;;19.86;75.89;64054.13;4963642;28;20575;-77
2022/06/21 05:52:38;;;;;;;19.17;8.52;;;;;;;19.80;77.39;64047.84;4963556;28;20208;-77
2022/06/21 05:55:09;;;;;;;8.07;7.30;;;;;;;19.84;78.91;64049.44;4963567;29;20516;-77
2022/06/21 05:57:41;;;;;;;16.73;8.75;;;;;;;19.85;77.45;64058.25;4963684;29;20196;-77
2022/06/21 06:00:21;;;;;;;10.07;7.35;;;;;;;20.02;77.15;64071.31;4963675;29;20399;-78
2022/06/21 06:02:51;;;;;;;9.90;7.20;;;;;;;20.33;78.09;64105.75;4962532;28;20195;-77
2022/06/21 06:05:24;;;;;;;15.20;7.47;;;;;;;20.36;74.54;64106.81;4960773;28;20220;-78
2022/06/21 06:07:57;;;;;;;10.98;7.00;;;;;;;20.50;75.36;64123.53;4963207;29;20196;-77
2022/06/21 06:10:26;;;;;;;9.32;6.70;;;;;;;20.61;73.00;64137.59;4959931;28;20244;-77
2022/06/21 06:12:58;;;;;;;16.60;6.95;;;;;;;20.61;72.63;64130.34;4962758;29;20211;-78
2022/06/21 06:15:36;;;;;;;8.13;6.90;;;;;;;20.64;72.68;64138.66;4945739;29;20448;-77
2022/06/21 06:18:08;;;;;;;9.00;6.45;;;;;;;20.65;72.66;64136.59;4960431;28;20215;-77
2022/06/21 06:20:42;;;;;;;12.68;6.97;;;;;;;20.83;71.75;64157.44;4949633;28;20252;-78
2022/06/21 06:23:17;;;;;;;12.45;5.93;;;;;;;20.89;74.04;64166.81;4944735;28;20243;-77
2022/06/21 06:25:49;;;;;;;6.55;5.93;;;;;;;21.11;70.48;64187.22;4947551;29;20251;-78
2022/06/21 06:28:24;;;;;;;8.70;7.03;;;;;;;21.18;69.60;64191.94;5032658;28;20201;-77
2022/06/21 06:30:57;;;;;;;7.15;5.95;;;;;;;21.01;70.40;64176.78;5064617;28;20226;-77
2022/06/21 06:33:27;;;;;;;7.53;6.53;;;;;;;21.04;69.37;64179.91;5051790;28;20211;-78
2022/06/21 06:35:58;;;;;;;8.85;6.88;;;;;;;20.86;71.82;64163.16;4946428;28;20540;-77
2022/06/21 06:38:26;;;;;;;9.45;7.53;;;;;;;20.65;72.45;64134.53;4944262;28;20571;-78
2022/06/21 06:40:57;;;;;;;11.70;7.28;;;;;;;20.80;73.35;64154.31;4945823;28;20275;-77
2022/06/21 06:43:29;;;;;;;8.63;7.10;;;;;;;20.99;74.46;64174.16;4943453;29;20466;-80
2022/06/21 06:45:58;;;;;;;14.60;8.27;;;;;;;21.33;71.37;64207.09;4943660;29;20525;-77
2022/06/21 06:48:31;;;;;;;11.88;8.38;;;;;;;21.65;69.38;64240.50;4946721;29;20209;-78
2022/06/21 06:51:07;;;;;;;9.35;7.65;;;;;;;21.90;68.54;64266.13;4943775;28;20357;-77
2022/06/21 06:53:41;;;;;;;14.40;8.95;;;;;;;21.91;68.93;64270.28;4943716;29;20209;-77
2022/06/21 06:56:23;;;;;;;15.13;8.57;;;;;;;21.87;69.19;64268.19;4945997;28;20270;-77
2022/06/21 06:58:53;;;;;;;14.63;8.35;;;;;;;21.81;69.26;64254.66;4962596;28;20375;-78
2022/06/21 07:01:24;;;;;;;14.35;8.95;;;;;;;21.79;68.88;64257.75;4967261;28;20246;-77
2022/06/21 07:03:56;;;;;;;13.43;8.68;;;;;;;21.86;68.12;64259.34;4966716;29;20236;-78
2022/06/21 07:06:40;;;;;;;12.40;8.75;;;;;;;21.86;68.42;64259.88;4963215;29;20240;-77
2022/06/21 07:09:16;;;;;;;12.68;9.20;;;;;;;22.15;68.16;64295.38;4968713;29;20290;-78
2022/06/21 07:11:52;;;;;;;13.70;8.38;;;;;;;22.21;69.55;64299.03;4966960;28;20198;-77
2022/06/21 07:14:22;;;;;;;9.02;7.90;;;;;;;22.28;67.85;64300.66;4966008;29;20264;-78
2022/06/21 07:16:56;;;;;;;13.85;7.72;;;;;;;22.25;69.11;64305.81;4952467;28;20216;-78
2022/06/21 07:19:23;;;;;;;10.63;7.72;;;;;;;22.42;69.13;64320.47;4946855;29;20408;-77
2022/06/21 07:21:52;;;;;;;9.55;7.30;;;;;;;22.61;66.60;64343.47;4947779;28;20205;-77
2022/06/21 07:24:20;;;;;;;15.02;7.57;;;;;;;22.51;66.44;64332.47;4950633;29;20258;-77
2022/06/21 07:26:53;;;;;;;12.35;7.28;;;;;;;22.67;66.44;64349.75;4965621;29;20192;-77
2022/06/21 07:29:22;;;;;;;11.45;7.03;;;;;;;;;;4966123;29;20410;-77
2022/06/21 07:31:56;;;;;;;10.60;8.00;;;;;;;23.37;66.04;64419.84;4966778;28;20203;-77
2022/06/21 07:34:28;;;;;;;8.73;7.78;;;;;;;23.50;64.61;64433.47;4956362;29;20266;-77
2022/06/21 07:37:01;;;;;;;8.02;6.15;;;;;;;23.69;66.43;64455.94;4946871;28;20534;-77
2022/06/21 07:39:36;;;;;;;12.63;6.80;;;;;;;23.83;63.01;64470.59;4946834;29;20225;-78
2022/06/21 07:42:09;;;;;;;6.90;6.30;;;;;;;23.73;63.28;64452.31;4947621;28;20393;-77
2022/06/21 07:44:45;;;;;;;12.95;6.95;;;;;;;23.92;63.95;64482.63;4964965;29;20235;-77
2022/06/21 07:47:19;;;;;;;6.72;6.05;;;;;;;24.20;63.80;64503.09;4967693;29;20196;-77
2022/06/21 07:49:52;;;;;;;6.07;5.57;;;;;;;24.43;59.62;64532.91;4967950;28;20219;-77
2022/06/21 07:52:25;;;;;;;6.22;5.57;;;;;;;24.85;57.95;64573.78;4959620;28;20213;-77
2022/06/21 07:54:57;;;;;;;6.35;5.78;;;;;;;24.97;59.74;64586.34;4947689;29;20267;-78
2022/06/21 07:57:29;;;;;;;6.20;5.60;;;;;;;25.46;53.52;64642.38;4947362;29;20260;-77
2022/06/21 08:00:01;;;;;;;6.93;5.13;;;;;;;25.79;51.65;64669.13;4949480;28;20227;-77
2022/06/21 08:08:14;;;;;;;8.82;5.60;;;;;;;25.74;52.23;64674.34;4945963;29;20237;-77
2022/06/21 08:10:45;;;;;;;10.40;5.13;;;;;;;25.68;51.44;64663.34;4954353;29;20287;-77
2022/06/21 08:13:13;;;;;;;5.55;5.15;;;;;;;25.81;52.30;64671.75;4965630;29;20203;-77
2022/06/21 08:15:44;;;;;;;5.70;5.25;;;;;;;25.86;51.41;64676.47;4963946;28;20239;-77
2022/06/21 08:18:21;;;;;;;8.88;5.70;;;;;;;25.90;52.37;64680.66;4947046;29;20232;-78
2022/06/21 08:20:57;;;;;;;8.52;5.50;;;;;;;25.94;51.89;64688.00;4955444;29;20230;-76
2022/06/21 08:23:32;;;;;;;13.18;5.13;;;;;;;25.94;52.03;64695.28;4953680;28;20268;-76
2022/06/21 08:26:03;;;;;;;8.32;5.22;;;;;;;26.08;51.98;64705.28;4945790;28;20274;-78
2022/06/21 08:28:37;;;;;;;5.93;5.32;;;;;;;26.16;52.92;64710.56;4946382;29;20211;-77
2022/06/21 08:31:10;;;;;;;5.65;4.72;;;;;;;26.10;52.39;64706.88;4949076;29;20240;-77
2022/06/21 08:33:43;;;;;;;9.35;5.45;;;;;;;25.99;53.04;64695.31;4949163;29;20267;-77
2022/06/21 08:36:17;;;;;;;6.40;5.30;;;;;;;26.02;53.80;64693.25;4947254;28;20213;-78
2022/06/21 08:38:52;;;;;;;9.07;5.47;;;;;;;26.29;53.51;64728.88;4952090;28;20205;-77
2022/06/21 08:42:06;;;;;;;10.73;5.68;;;;;;;26.46;52.52;64749.84;4952685;28;20224;-77
2022/06/21 08:48:33;;;;;;;11.32;8.07;;;;;;;26.02;53.48;64698.47;4952772;29;20246;-77
2022/06/21 08:51:32;;;;;;;12.55;7.32;;;;;;;26.12;53.76;64706.88;4946102;29;20247;-77
2022/06/21 08:54:10;;;;;;;6.63;6.13;;;;;;;26.23;54.39;64720.50;4934079;28;20213;-77
2022/06/21 08:56:46;;;;;;;8.35;7.47;;;;;;;26.27;54.56;64724.16;4946411;28;20201;-76
2022/06/21 08:59:22;;;;;;;9.07;6.55;;;;;;;26.11;54.75;64703.22;4955869;28;20204;-77
2022/06/21 09:01:58;;;;;;;7.57;6.15;;;;;;;25.97;55.33;64691.13;4962414;29;20467;-77
2022/06/21 09:04:32;;;;;;;8.43;6.18;;;;;;;25.97;56.49;64688.50;4955916;29;20252;-77
2022/06/21 09:07:21;;;;;;;7.07;6.47;;;;;;;26.12;55.51;64709.50;4965776;29;20188;-77
2022/06/21 09:10:02;;;;;;;10.32;6.88;;;;;;;26.26;55.01;64725.72;4964913;28;20220;-77
2022/06/21 09:12:41;;;;;;;8.52;6.25;;;;;;;26.29;54.07;64729.41;4962890;29;20200;-76
2022/06/21 09:15:33;;;;;;;11.68;6.55;;;;;;;26.18;55.48;64715.78;4947359;29;20225;-76
2022/06/21 09:18:13;;;;;;;7.97;6.10;;;;;;;26.06;57.07;64705.81;4946717;29;20264;-77
2022/06/21 09:20:46;;;;;;;7.88;6.55;;;;;;;26.26;55.99;64723.13;4946354;28;20221;-77
2022/06/21 09:23:25;;;;;;;8.80;6.38;;;;;;;26.53;56.47;64751.41;4949689;29;20239;-76
2022/06/21 09:26:09;;;;;;;6.90;6.30;;;;;;;26.59;55.24;64758.25;4947705;28;20250;-77
2022/06/21 09:28:41;;;;;;;8.15;6.55;;;;;;;26.53;56.23;64751.94;4954327;28;20238;-77
2022/06/21 09:31:17;;;;;;;8.82;6.90;;;;;;;26.70;54.77;64769.28;4965607;29;20250;-76
2022/06/21 09:33:50;;;;;;;7.30;6.60;;;;;;;26.81;54.87;64775.59;4965490;28;20355;-77
2022/06/21 09:36:28;;;;;;;8.18;6.60;;;;;;;26.65;56.12;64764.00;4955986;28;20259;-77
2022/06/21 09:39:09;;;;;;;9.88;6.22;;;;;;;26.53;56.08;64751.41;4949008;29;20375;-75
2022/06/21 09:41:48;;;;;;;9.48;7.50;;;;;;;26.71;56.36;64768.25;4954783;28;20496;-76
2022/06/21 09:44:21;;;;;;;10.40;6.60;;;;;;;26.92;55.30;64787.13;4949521;29;20262;-76
2022/06/21 09:46:55;;;;;;;7.30;6.60;;;;;;;26.84;54.54;64781.88;4944651;29;20212;-77
2022/06/21 09:49:41;;;;;;;13.88;7.28;;;;;;;27.03;53.28;64806.50;4948148;29;20200;-77
2022/06/21 09:52:20;;;;;;;8.07;7.20;;;;;;;27.02;53.11;64800.22;4944885;28;20209;-77
2022/06/21 09:54:57;;;;;;;6.63;5.72;;;;;;;26.87;54.01;64787.13;4955919;28;20228;-75
2022/06/21 09:57:34;;;;;;;8.18;6.97;;;;;;;27.24;53.22;64823.31;4964434;28;20207;-76
2022/06/21 10:00:07;;;;;;;7.53;6.93;;;;;;;27.32;51.23;64831.72;4963764;29;20227;-76
2022/06/21 10:02:41;;;;;;;7.82;7.07;;;;;;;27.35;50.89;64837.50;4963546;29;20196;-75
2022/06/21 10:05:15;;;;;;;9.75;6.85;;;;;;;27.63;50.63;64859.00;4951269;29;20299;-75
2022/06/21 10:08:10;;;;;;;10.57;7.68;;;;;;;27.57;52.94;64860.56;4944884;29;20188;-77
2022/06/21 10:10:50;;;;;;;7.05;6.20;;;;;;;27.73;51.49;64877.38;4947395;28;20224;-77
2022/06/21 10:14:07;;;;;;;10.95;6.90;;;;;;;27.74;51.20;64875.78;4961416;29;20376;-76
2022/06/21 10:17:00;;;;;;;7.93;6.45;;;;;;;27.94;50.51;64896.28;4925218;28;20234;-77
2022/06/21 10:19:42;;;;;;;11.02;6.63;;;;;;;27.57;51.04;64860.03;4971050;28;20220;-77
2022/06/21 10:22:36;;;;;;;9.45;7.65;;;;;;;27.62;51.66;64863.19;4965854;28;20188;-75
2022/06/21 10:25:48;;;;;;;9.18;7.00;;;;;;;27.71;51.42;64872.66;4950572;28;20228;-75
2022/06/21 10:28:47;;;;;;;12.90;7.20;;;;;;;27.47;52.01;64844.31;4966355;29;20195;-75
2022/06/21 10:31:55;;;;;;;13.68;7.50;;;;;;;27.67;51.66;64870.53;4952048;29;20216;-76
2022/06/21 10:34:52;;;;;;;11.35;7.50;;;;;;;27.71;52.05;64872.13;4952834;29;20252;-78
2022/06/21 10:37:28;;;;;;;8.85;6.63;;;;;;;27.71;52.19;64874.75;4947888;28;20200;-77
2022/06/21 10:40:13;;;;;;;11.05;7.25;;;;;;;27.80;49.83;64884.69;4953645;28;20299;-78
2022/06/21 10:43:11;;;;;;;7.95;6.47;;;;;;;27.44;49.22;64852.16;4950043;29;20192;-79
2022/06/21 10:45:52;;;;;;;7.63;6.90;;;;;;;27.26;50.79;64833.78;4948801;29;20304;-78
2022/06/21 10:48:59;;;;;;;7.70;6.13;;;;;;;27.28;50.35;64830.13;4954223;28;20193;-78
2022/06/21 10:51:36;;;;;;;7.15;6.43;;;;;;;27.23;50.61;64822.25;4951585;29;20262;-77
2022/06/21 10:54:26;;;;;;;7.20;6.50;;;;;;;27.02;50.76;64800.75;4949031;29;20238;-77
2022/06/21 10:57:13;;;;;;;11.93;7.75;;;;;;;27.29;50.91;64828.56;4954988;28;20192;-78
2022/06/21 11:03:16;;;;;;;9.52;6.22;;;;;;;27.49;49.90;64854.28;5051614;28;20196;-77
2022/06/21 11:05:54;;;;;;;7.10;6.55;;;;;;;27.59;49.89;64867.38;5057788;28;20247;-77
2022/06/21 11:08:34;;;;;;;8.75;6.90;;;;;;;27.74;50.29;64881.03;4982061;28;20505;-76
2022/06/21 11:11:09;;;;;;;7.85;7.18;;;;;;;27.47;50.50;64850.09;4954430;29;20227;-77
2022/06/21 11:13:42;;;;;;;8.00;7.22;;;;;;;27.66;50.30;64867.41;4956417;28;20200;-75
2022/06/21 11:16:19;;;;;;;8.30;7.22;;;;;;;27.75;50.54;64879.44;4958164;28;20231;-78
2022/06/21 11:19:00;;;;;;;6.82;6.15;;;;;;;27.89;50.40;64896.78;4959057;28;20208;-77
2022/06/21 11:21:54;;;;;;;8.13;7.32;;;;;;;28.00;50.10;64905.72;4953734;29;20263;-79
2022/06/21 11:24:32;;;;;;;7.95;7.22;;;;;;;28.01;50.25;64906.75;4958239;28;20197;-77
2022/06/21 11:27:10;;;;;;;8.07;7.25;;;;;;;28.07;49.75;64913.06;4965372;28;20264;-77
2022/06/21 11:29:43;;;;;;;8.18;7.25;;;;;;;28.24;48.98;64930.91;4959826;28;20224;-77
2022/06/21 11:32:22;;;;;;;8.40;7.63;;;;;;;28.26;49.81;64940.34;4955265;29;20208;-78
2022/06/21 11:34:57;;;;;;;7.32;6.57;;;;;;;28.42;49.71;64949.31;4967398;28;20238;-78
2022/06/21 11:37:39;;;;;;;7.97;7.28;;;;;;;28.17;50.67;64920.41;4952628;28;20204;-77
2022/06/21 11:40:22;;;;;;;9.73;6.90;;;;;;;28.56;49.63;64964.00;4950558;28;20220;-77
2022/06/21 11:42:52;;;;;;;9.85;7.18;;;;;;;28.39;50.36;64944.03;4955187;28;20209;-77
2022/06/21 11:45:35;;;;;;;7.30;6.57;;;;;;;28.42;49.73;64947.19;4961953;29;20357;-78
2022/06/21 11:48:23;;;;;;;7.60;6.88;;;;;;;28.74;49.18;64980.28;4966623;29;20283;-77
2022/06/21 11:51:01;;;;;;;8.25;7.47;;;;;;;28.85;48.44;64999.72;4965605;28;20220;-76
2022/06/21 11:53:51;;;;;;;8.05;7.30;;;;;;;28.82;48.31;64988.19;4966625;28;20204;-76
2022/06/21 11:56:24;;;;;;;7.22;6.75;;;;;;;28.67;48.67;64978.19;4965771;28;20250;-77
2022/06/21 11:58:58;;;;;;;7.60;7.00;;;;;;;28.73;49.10;64981.34;4962057;29;20201;-77
2022/06/21 12:01:33;;;;;;;7.30;6.60;;;;;;;29.25;46.80;65033.88;4966884;28;20235;-76
2022/06/21 12:04:12;;;;;;;7.78;6.80;;;;;;;28.89;48.18;64998.16;4967643;29;20200;-77
2022/06/21 12:06:46;;;;;;;9.13;7.28;;;;;;;29.11;47.24;65016.03;4967833;28;20243;-78
2022/06/21 12:09:22;;;;;;;7.85;7.20;;;;;;;28.63;49.71;64970.84;4951827;28;20204;-78
2022/06/21 12:12:07;;;;;;;8.23;7.30;;;;;;;28.90;47.88;64993.94;4958544;28;20223;-78
2022/06/21 12:14:53;;;;;;;9.05;7.13;;;;;;;29.69;44.47;65081.72;4953875;28;20224;-77
2022/06/21 12:17:22;;;;;;;8.82;6.65;;;;;;;29.73;45.04;65083.84;4956983;28;20246;-78
2022/06/21 12:19:54;;;;;;;8.18;7.28;;;;;;;29.94;44.45;65108.50;4963256;28;20224;-78
2022/06/21 12:22:29;;;;;;;8.82;7.43;;;;;;;29.70;45.17;65083.28;4950385;28;20208;-78
2022/06/21 12:24:58;;;;;;;12.43;6.45;;;;;;;29.72;45.61;65084.88;4952898;28;20269;-77